Naval Air Station/JRB, Texas
Current Conditions -  °F | °C
As of 6:52 AM on Thursday 23 Oct 2014 (Local Time) from KNFW Reporting Station
Overcast Overcast  
Wind Chill: 72°   Ceiling: 6500
Heat Index: 72°   Visibility: 10mi
Dew Point: 52°   Wind: 6mph
Humidity: 49%   Direction: 120°ESE
Pressure: 30.17"   Gusts: NA
Location:  32.7796°N, 97.4234°W
Report Text: KNFW 231152Z 12005KT 10SM OVC065 22/11 A3017 RMK AO2 SLP197 T02220111 10244 20222 53005 CHINO N VISNO N $
Loading
Personal Weather Stations






























Interactive Weather Map
Tropical Storm Tracking
New forecast layout! Learn more

10-Day Weather Forecast

Advertisements
Track Severe Weather on mobile